Aviation Digital Data Service (ADDS)

Output produced by METARs form (1007 UTC 22 May 2018)
found at http://www.aviationweather.gov/adds/metars/
 
KSEG 220953Z AUTO 00000KT 6SM BR SCT025 OVC100 14/14 A3009 RMK AO2 SLP186 T01440139
KSEG 220853Z AUTO 00000KT 10SM OVC026 14/13 A3009 RMK AO2 RAE17 SLP186 P0002 60007 T01440133 56011
KSEG 220822Z AUTO 00000KT 10SM OVC029 14/13 A3008 RMK AO2 LTG DSNT N RAE17 P0002 T01440133
KSEG 220753Z AUTO 29004KT 6SM -RA BR SCT034 BKN041 OVC055 14/13 A3009 RMK AO2 LTG DSNT N AND NW RAB25 SLP189 P0005 T01440133
KSEG 220653Z AUTO 00000KT 10SM SCT060 BKN075 BKN090 14/12 A3010 RMK AO2 SLP191 T01440122
KSEG 220553Z AUTO 00000KT 10SM BKN075 14/12 A3012 RMK AO2 SLP199 T01440122 10167 20128 58009
KSEG 220453Z AUTO 00000KT 10SM CLR 14/12 A3014 RMK AO2 SLP204 T01390117 402500094
KSEG 220353Z AUTO 00000KT 10SM CLR 14/12 A3014 RMK AO2 SLP206 T01390117
KSEG 220253Z AUTO 00000KT 10SM CLR 13/11 A3015 RMK AO2 SLP208 T01330111 53004
KSEG 220153Z AUTO 00000KT 10SM CLR 14/11 A3014 RMK AO2 SLP206 T01390111
KSEG 220053Z AUTO 00000KT 10SM CLR 14/12 A3014 RMK AO2 SLP205 T01390117
KSEG 212353Z AUTO 00000KT 10SM CLR 16/13 A3014 RMK AO2 SLP205 T01610133 10250 20161 55001
KSEG 212253Z AUTO 00000KT 10SM CLR 23/08 A3013 RMK AO2 SLP202 T02280083
KSEG 212153Z AUTO 00000KT 10SM CLR 24/08 A3014 RMK AO2 SLP204 T02390078
KSEG 212053Z AUTO 00000KT 10SM CLR 25/03 A3014 RMK AO2 SLP205 T02500033 58021
KSEG 211953Z AUTO 18003KT 10SM CLR 23/11 A3016 RMK AO2 SLP212 T02280111
KSEG 211853Z AUTO 30005KT 10SM CLR 23/09 A3019 RMK AO2 SLP220 T02280094
KSEG 211753Z AUTO 00000KT 10SM CLR 22/11 A3020 RMK AO2 SLP227 T02220106 10222 20144 58017
KSEG 211653Z AUTO 33004KT 10SM CLR 21/11 A3023 RMK AO2 SLP234 T02110111
KSEG 211553Z AUTO 00000KT 10SM CLR 20/12 A3025 RMK AO2 SLP242 T02000117
KSEG 211453Z AUTO VRB05KT 10SM FEW026 19/13 A3026 RMK AO2 SLP244 T01940128 51008
KSEG 211446Z AUTO 04005KT 10SM FEW026 SCT030 BKN120 18/12 A3026 RMK AO2 T01830122
KSEG 211437Z AUTO 32004KT 10SM BKN026 BKN030 BKN120 19/13 A3026 RMK AO2 T01890133
KSEG 211430Z AUTO 35007KT 10SM SCT024 BKN036 BKN120 19/13 A3026 RMK AO2 T01890133
KSEG 211353Z AUTO VRB04KT 10SM SCT025 BKN029 OVC110 18/13 A3026 RMK AO2 SLP244 T01780128
KSEG 211300Z AUTO 02004KT 10SM BKN019 BKN025 OVC110 17/13 A3025 RMK AO2 T01720133
KSEG 211253Z AUTO 00000KT 10SM SCT019 BKN100 17/13 A3025 RMK AO2 SLP242 T01720133
KSEG 211153Z AUTO 00000KT 10SM CLR 14/13 A3023 RMK AO2 SLP236 70001 T01440128 10144 20094 51019
KSEG 211053Z AUTO 00000KT 8SM CLR 12/11 A3022 RMK AO2 SLP231 T01220111
KSEG 211029Z AUTO 00000KT 4SM BR CLR 11/09 A3021 RMK AO2 T01060094
KSEG 211018Z AUTO 00000KT 1 1/2SM BR CLR 10/10 A3020 RMK AO2 T01000100
KSEG 210953Z AUTO 00000KT 6SM BR CLR 10/09 A3020 RMK AO2 SLP224 T01000094
KSEG 210905Z AUTO 33004KT 3SM BR CLR 10/09 A3018 RMK AO2 T01000094
KSEG 210857Z AUTO 34003KT 1 3/4SM BR CLR 11/10 A3017 RMK AO2 VIS 1V5 T01060100
KSEG 210853Z AUTO 00000KT 3SM BR CLR 10/09 A3017 RMK AO2 SLP217 T01000094 53012
KSEG 210837Z AUTO 00000KT 2 1/2SM BR CLR 11/10 A3017 RMK AO2 VIS 1V5 T01060100
KSEG 210753Z AUTO 00000KT 9SM CLR 11/11 A3015 RMK AO2 SLP209 T01110106
KSEG 210653Z AUTO 00000KT 10SM CLR 11/11 A3014 RMK AO2 SLP205 T01110106
KSEG 210553Z AUTO 36004KT 5SM BR CLR 12/11 A3014 RMK AO2 SLP204 T01170106 10200 20117 51010
KSEG 210453Z AUTO 00000KT 10SM CLR 12/12 A3013 RMK AO2 SLP202 T01220117 402560117
KSEG 210353Z AUTO 31003KT 10SM CLR 14/12 A3012 RMK AO2 SLP197 T01390122
KSEG 210253Z AUTO 00000KT 10SM CLR 16/13 A3011 RMK AO2 SLP193 T01610128 51018
KSEG 210153Z AUTO 02003KT 10SM CLR 17/13 A3010 RMK AO2 SLP192 T01670133
KSEG 210053Z AUTO 02007KT 10SM CLR 19/14 A3007 RMK AO2 SLP182 T01890139
KSEG 202353Z AUTO 36007KT 10SM CLR 20/15 A3005 RMK AO2 SLP175 60001 T02000150 10256 20200 53013
KSEG 202253Z AUTO 35012KT 10SM FEW060 22/16 A3004 RMK AO2 SLP170 T02220161